Time;durP1;ratioP1;P1;durP2;ratioP2;P2;SDS_P1;SDS_P2;PMS_P1;PMS_P2;Temp;Humidity;BMP_temperature;BMP_pressure;BME280_temperature;BME280_humidity;BME280_pressure;Samples;Min_cycle;Max_cycle;Signal;HPM_P1;HPM_P2
2022/01/08 00:01:37;;;;;;;203.27;79.70;;;;;;;;;;5026975;28;20025;-82
2022/01/08 00:04:03;;;;;;;181.98;75.97;;;;;;;;;;5013900;28;20040;-82
2022/01/08 00:06:29;;;;;;;179.70;74.78;;;;;;;;;;5032180;28;20045;-80
2022/01/08 00:08:56;;;;;;;178.07;74.63;;;;;;;;;;5034014;28;20032;-80
2022/01/08 00:11:25;;;;;;;204.65;78.95;;;;;;;;;;5034446;28;20022;-82
2022/01/08 00:13:52;;;;;;;185.32;74.13;;;;;;;;;;5017293;28;20026;-80
2022/01/08 00:16:18;;;;;;;185.85;75.85;;;;;;;;;;5031808;28;20068;-82
2022/01/08 00:18:44;;;;;;;179.55;73.93;;;;;;;;;;5014900;28;20041;-81
2022/01/08 00:21:11;;;;;;;196.27;79.20;;;;;;;;;;4971438;28;1726256;-82
2022/01/08 00:23:37;;;;;;;204.48;84.43;;;;;;;;;;5033109;28;20038;-82
2022/01/08 00:26:04;;;;;;;192.07;79.45;;;;;;;;;;5032729;28;20116;-82
2022/01/08 00:28:31;;;;;;;278.63;92.47;;;;;;;;;;5032943;28;20044;-81
2022/01/08 00:30:57;;;;;;;218.00;85.15;;;;;;;;;;5015286;28;20022;-83
2022/01/08 00:33:23;;;;;;;174.63;72.53;;;;;;;;;;5033138;28;20036;-80
2022/01/08 00:35:50;;;;;;;196.65;78.95;;;;;;;;;;5032438;28;20420;-82
2022/01/08 00:38:16;;;;;;;218.75;82.45;;;;;;;;;;5016055;28;20044;-81
2022/01/08 00:40:42;;;;;;;223.02;83.97;;;;;;;;;;5014523;28;20033;-80
2022/01/08 00:43:09;;;;;;;230.63;86.03;;;;;;;;;;5033590;28;20439;-83
2022/01/08 00:45:35;;;;;;;215.32;80.38;;;;;;;;;;5049595;28;20021;-81
2022/01/08 00:48:01;;;;;;;200.75;80.35;;;;;;;;;;5050311;28;20045;-81
2022/01/08 00:50:28;;;;;;;226.65;84.68;;;;;;;;;;5055448;28;20056;-80
2022/01/08 00:52:54;;;;;;;204.00;79.57;;;;;;;;;;5045217;28;20033;-81
2022/01/08 00:55:20;;;;;;;230.13;85.68;;;;;;;;;;5050473;28;20033;-81
2022/01/08 00:57:47;;;;;;;223.98;84.63;;;;;;;;;;5053661;28;20078;-80
2022/01/08 01:00:14;;;;;;;224.45;86.10;;;;;;;;;;5034827;28;20032;-82
2022/01/08 01:02:41;;;;;;;228.55;87.22;;;;;;;;;;5032064;28;20026;-82
2022/01/08 01:05:07;;;;;;;258.58;92.20;;;;;;;;;;5014286;28;20384;-81
2022/01/08 01:07:34;;;;;;;243.32;90.63;;;;;;;;;;5035870;28;20040;-82
2022/01/08 01:10:00;;;;;;;216.05;82.78;;;;;;;;;;5035948;28;20507;-82
2022/01/08 01:12:27;;;;;;;209.45;82.50;;;;;;;;;;5024171;28;20377;-81
2022/01/08 01:14:53;;;;;;;244.85;91.53;;;;;;;;;;5016056;28;20026;-82
2022/01/08 01:17:19;;;;;;;198.75;82.57;;;;;;;;;;5031100;28;20033;-81
2022/01/08 01:19:49;;;;;;;282.80;100.75;;;;;;;;;;5034005;28;20025;-82
2022/01/08 01:22:18;;;;;;;244.18;90.82;;;;;;;;;;5033460;28;20049;-80
2022/01/08 01:24:46;;;;;;;197.50;77.40;;;;;;;;;;5021261;28;20096;-80
2022/01/08 01:30:03;;;;;;;247.32;87.72;;;;;;;;;;5033586;28;20029;-82
2022/01/08 01:48:59;;;;;;;230.60;86.80;;;;;;;;;;5034828;28;20040;-83
2022/01/08 01:51:25;;;;;;;206.52;82.30;;;;;;;;;;5035155;28;20029;-82
2022/01/08 01:53:52;;;;;;;203.55;81.10;;;;;;;;;;5035027;28;20030;-83
2022/01/08 01:56:19;;;;;;;248.77;89.97;;;;;;;;;;5017114;28;20030;-82
2022/01/08 01:58:46;;;;;;;236.52;87.68;;;;;;;;;;5034384;28;20029;-81
2022/01/08 02:01:13;;;;;;;207.75;84.20;;;;;;;;;;5013006;28;20570;-82
2022/01/08 02:03:39;;;;;;;214.32;82.85;;;;;;;;;;5016796;28;20120;-81
2022/01/08 02:06:06;;;;;;;233.10;87.72;;;;;;;;;;5034348;28;20176;-83
2022/01/08 02:08:33;;;;;;;193.00;76.18;;;;;;;;;;5034263;28;20104;-82
2022/01/08 02:10:59;;;;;;;184.50;77.43;;;;;;;;;;5032171;28;20075;-80
2022/01/08 02:13:27;;;;;;;180.48;73.53;;;;;;;;;;5024656;28;20080;-83
2022/01/08 02:15:55;;;;;;;178.15;69.45;;;;;;;;;;5000468;28;20061;-82
2022/01/08 02:18:28;;;;;;;135.00;57.33;;;;;;;;;;5030394;28;20035;-81
2022/01/08 02:20:55;;;;;;;122.72;54.10;;;;;;;;;;5035046;28;20053;-83
2022/01/08 02:23:22;;;;;;;101.68;50.50;;;;;;;;;;5033150;28;20029;-83
2022/01/08 02:25:49;;;;;;;89.70;43.05;;;;;;;;;;5033360;28;20042;-82
2022/01/08 02:28:16;;;;;;;86.30;42.80;;;;;;;;;;5028028;28;20049;-82
2022/01/08 02:30:43;;;;;;;77.00;38.55;;;;;;;;;;5030081;28;20026;-83
2022/01/08 02:33:09;;;;;;;74.20;40.03;;;;;;;;;;5024362;28;20034;-81
2022/01/08 02:35:35;;;;;;;80.05;39.40;;;;;;;;;;5001556;28;20033;-82
2022/01/08 02:38:02;;;;;;;82.15;41.22;;;;;;;;;;5017067;28;20162;-83
2022/01/08 02:40:28;;;;;;;85.72;41.47;;;;;;;;;;5033257;28;20033;-81
2022/01/08 02:43:01;;;;;;;77.63;39.38;;;;;;;;;;5002856;28;20096;-81
2022/01/08 02:45:28;;;;;;;80.35;40.20;;;;;;;;;;5034516;28;20029;-83
2022/01/08 02:47:55;;;;;;;73.63;38.05;;;;;;;;;;5012698;28;20472;-83
2022/01/08 02:50:22;;;;;;;71.97;39.58;;;;;;;;;;5011112;28;20033;-81
2022/01/08 02:52:49;;;;;;;78.43;41.17;;;;;;;;;;5020779;28;20036;-81
2022/01/08 02:55:16;;;;;;;76.25;38.22;;;;;;;;;;5016855;28;20464;-82
2022/01/08 02:57:42;;;;;;;75.40;37.85;;;;;;;;;;5033585;28;20032;-83
2022/01/08 03:00:10;;;;;;;71.18;37.47;;;;;;;;;;5027410;28;20457;-82
2022/01/08 03:02:41;;;;;;;81.57;41.15;;;;;;;;;;5027008;28;20022;-80
2022/01/08 03:05:07;;;;;;;77.40;40.65;;;;;;;;;;5016160;28;20029;-82
2022/01/08 03:07:34;;;;;;;80.57;42.38;;;;;;;;;;5033978;28;20150;-82
2022/01/08 03:10:00;;;;;;;75.13;39.95;;;;;;;;;;5024192;28;20026;-82
2022/01/08 03:12:27;;;;;;;82.93;45.22;;;;;;;;;;5015342;28;20040;-84
2022/01/08 03:14:55;;;;;;;96.32;45.10;;;;;;;;;;5005988;28;20022;-82
2022/01/08 03:17:21;;;;;;;88.50;43.28;;;;;;;;;;5021102;28;20091;-81
2022/01/08 03:19:51;;;;;;;93.30;45.85;;;;;;;;;;5016065;28;20036;-82
2022/01/08 03:22:18;;;;;;;96.78;47.33;;;;;;;;;;5028608;28;20048;-83
2022/01/08 03:24:44;;;;;;;103.63;49.00;;;;;;;;;;5025418;28;20032;-82
2022/01/08 03:27:11;;;;;;;93.80;48.58;;;;;;;;;;5026712;28;20047;-84
2022/01/08 03:29:38;;;;;;;103.50;50.80;;;;;;;;;;5023479;28;20033;-82
2022/01/08 03:32:04;;;;;;;95.43;48.60;;;;;;;;;;5015157;28;20026;-82
2022/01/08 03:34:30;;;;;;;104.32;51.97;;;;;;;;;;5030265;28;20026;-82
2022/01/08 03:36:57;;;;;;;111.22;51.53;;;;;;;;;;5028333;28;20057;-82
2022/01/08 03:39:23;;;;;;;136.27;55.35;;;;;;;;;;5012564;28;20037;-83
2022/01/08 03:41:49;;;;;;;126.22;55.28;;;;;;;;;;5029508;28;20033;-83
2022/01/08 03:44:15;;;;;;;129.50;55.97;;;;;;;;;;5002706;28;20084;-84
2022/01/08 03:46:42;;;;;;;97.57;45.30;;;;;;;;;;5021975;28;20544;-84
2022/01/08 03:51:35;;;;;;;91.40;45.55;;;;;;;;;;5030695;28;20056;-83
2022/01/08 03:54:02;;;;;;;79.85;39.65;;;;;;;;;;5015102;28;20025;-83
2022/01/08 03:56:28;;;;;;;81.97;39.83;;;;;;;;;;4995575;28;20129;-83
2022/01/08 03:58:54;;;;;;;79.13;41.05;;;;;;;;;;5004803;28;20029;-82
2022/01/08 04:01:21;;;;;;;82.43;37.35;;;;;;;;;;5028111;28;20062;-82
2022/01/08 04:03:47;;;;;;;87.75;40.13;;;;;;;;;;5029701;28;20029;-81
2022/01/08 04:06:14;;;;;;;88.22;43.05;;;;;;;;;;5031004;28;20543;-84
2022/01/08 04:08:41;;;;;;;89.05;41.28;;;;;;;;;;5037019;28;20017;-81
2022/01/08 04:11:07;;;;;;;85.25;41.25;;;;;;;;;;5018853;28;20061;-81
2022/01/08 04:13:36;;;;;;;88.63;43.05;;;;;;;;;;5016516;28;20032;-85
2022/01/08 04:16:11;;;;;;;86.53;46.15;;;;;;;;;;5030717;28;20037;-83
2022/01/08 04:18:38;;;;;;;101.13;45.15;;;;;;;;;;5032073;28;20026;-82
2022/01/08 04:23:31;;;;;;;96.22;45.85;;;;;;;;;;5021867;28;20034;-82
2022/01/08 04:25:57;;;;;;;93.13;46.35;;;;;;;;;;5013130;28;20064;-83
2022/01/08 04:28:24;;;;;;;148.82;68.05;;;;;;;;;;5031273;28;20025;-82
2022/01/08 04:30:50;;;;;;;170.55;80.22;;;;;;;;;;5015148;28;20056;-84
2022/01/08 04:33:16;;;;;;;178.98;78.57;;;;;;;;;;5010079;28;20021;-83
2022/01/08 04:35:43;;;;;;;165.23;77.88;;;;;;;;;;5026688;28;20476;-82
2022/01/08 04:38:09;;;;;;;186.93;83.57;;;;;;;;;;5031487;28;20033;-82
2022/01/08 04:40:35;;;;;;;186.57;82.60;;;;;;;;;;5015093;28;20104;-82
2022/01/08 04:43:02;;;;;;;183.43;84.82;;;;;;;;;;5034151;28;20029;-84
2022/01/08 04:45:29;;;;;;;187.57;87.72;;;;;;;;;;5031456;28;20036;-80
2022/01/08 04:47:59;;;;;;;205.10;94.13;;;;;;;;;;5030577;28;20472;-84
2022/01/08 04:50:26;;;;;;;209.85;97.03;;;;;;;;;;5032213;28;20434;-83
2022/01/08 04:52:52;;;;;;;203.50;91.05;;;;;;;;;;5023556;28;20100;-83
2022/01/08 04:55:19;;;;;;;217.27;97.55;;;;;;;;;;5023289;28;20578;-86
2022/01/08 04:57:45;;;;;;;183.88;92.07;;;;;;;;;;4992802;28;20033;-82
2022/01/08 05:00:12;;;;;;;188.27;98.25;;;;;;;;;;5030100;28;20076;-83
2022/01/08 05:02:38;;;;;;;190.57;91.95;;;;;;;;;;5028139;28;20095;-82
2022/01/08 05:05:05;;;;;;;198.10;99.15;;;;;;;;;;5012089;28;20096;-81
2022/01/08 05:07:31;;;;;;;210.43;100.75;;;;;;;;;;5033314;28;20499;-84
2022/01/08 05:09:58;;;;;;;196.90;93.03;;;;;;;;;;5033924;28;20048;-81
2022/01/08 05:12:24;;;;;;;181.95;79.35;;;;;;;;;;5035016;28;20037;-82
2022/01/08 05:14:51;;;;;;;180.82;88.70;;;;;;;;;;5030648;28;20033;-82
2022/01/08 05:17:17;;;;;;;185.50;90.65;;;;;;;;;;5015339;28;20048;-83
2022/01/08 05:19:48;;;;;;;176.25;86.97;;;;;;;;;;5012866;28;20546;-85
2022/01/08 05:22:24;;;;;;;185.32;94.18;;;;;;;;;;5034041;28;20509;-83
2022/01/08 05:24:52;;;;;;;195.13;99.80;;;;;;;;;;5016007;28;20025;-84
2022/01/08 05:27:18;;;;;;;194.75;95.47;;;;;;;;;;5028597;28;20488;-83
2022/01/08 05:29:45;;;;;;;162.40;89.70;;;;;;;;;;5026614;28;20033;-81
2022/01/08 05:32:18;;;;;;;175.20;92.45;;;;;;;;;;5031852;28;20029;-82
2022/01/08 05:34:45;;;;;;;170.52;88.45;;;;;;;;;;5032004;28;20044;-83
2022/01/08 05:37:11;;;;;;;175.68;87.85;;;;;;;;;;5028929;28;20052;-83
2022/01/08 05:39:38;;;;;;;132.07;61.35;;;;;;;;;;5015326;28;20033;-82
2022/01/08 05:42:05;;;;;;;141.88;66.80;;;;;;;;;;5026125;28;20385;-84
2022/01/08 05:44:31;;;;;;;133.15;58.72;;;;;;;;;;5030587;28;20408;-81
2022/01/08 05:46:58;;;;;;;120.55;56.65;;;;;;;;;;5031939;28;20025;-84
2022/01/08 05:49:24;;;;;;;119.50;60.42;;;;;;;;;;5032893;28;20030;-83
2022/01/08 05:51:50;;;;;;;122.53;58.70;;;;;;;;;;5033231;28;20033;-82
2022/01/08 05:54:17;;;;;;;117.63;56.88;;;;;;;;;;5034532;28;20525;-82
2022/01/08 05:56:43;;;;;;;124.05;57.63;;;;;;;;;;5015881;28;20033;-83
2022/01/08 05:59:10;;;;;;;130.95;58.17;;;;;;;;;;5016101;28;20485;-82
2022/01/08 06:01:37;;;;;;;138.35;57.90;;;;;;;;;;5029405;28;20084;-84
2022/01/08 06:04:04;;;;;;;124.60;57.80;;;;;;;;;;5016526;28;20061;-83
2022/01/08 06:06:30;;;;;;;144.80;62.05;;;;;;;;;;5028218;28;20033;-83
2022/01/08 06:08:56;;;;;;;162.23;62.28;;;;;;;;;;5031595;28;20389;-83
2022/01/08 06:11:22;;;;;;;149.02;60.50;;;;;;;;;;5032220;28;20091;-82
2022/01/08 06:13:49;;;;;;;141.15;62.40;;;;;;;;;;5007274;28;20079;-83
2022/01/08 06:16:16;;;;;;;131.88;61.75;;;;;;;;;;5015654;28;20492;-83
2022/01/08 06:18:42;;;;;;;111.97;57.00;;;;;;;;;;5033416;28;20029;-83
2022/01/08 06:21:08;;;;;;;130.32;54.50;;;;;;;;;;5035673;28;20053;-82
2022/01/08 06:23:35;;;;;;;116.97;56.70;;;;;;;;;;5009133;28;20499;-83
2022/01/08 06:26:01;;;;;;;118.30;54.42;;;;;;;;;;5030965;28;20033;-84
2022/01/08 06:28:27;;;;;;;97.72;49.20;;;;;;;;;;5009063;28;20029;-83
2022/01/08 06:30:54;;;;;;;135.10;58.95;;;;;;;;;;5023559;28;20465;-83
2022/01/08 06:33:20;;;;;;;152.32;62.90;;;;;;;;;;5010243;28;20025;-82
2022/01/08 06:35:48;;;;;;;145.32;60.40;;;;;;;;;;5026334;28;20542;-83
2022/01/08 06:38:15;;;;;;;148.85;63.33;;;;;;;;;;5028135;28;20106;-83
2022/01/08 06:40:41;;;;;;;147.90;58.78;;;;;;;;;;5030283;28;20037;-84
2022/01/08 06:43:08;;;;;;;114.63;55.42;;;;;;;;;;5026744;28;20061;-83
2022/01/08 06:45:34;;;;;;;160.90;65.05;;;;;;;;;;5006700;28;20492;-83
2022/01/08 06:48:00;;;;;;;149.43;60.92;;;;;;;;;;5028684;28;20083;-83
2022/01/08 06:50:28;;;;;;;136.10;60.90;;;;;;;;;;5025663;28;20036;-83
2022/01/08 06:52:55;;;;;;;136.88;59.75;;;;;;;;;;5027549;28;20108;-86
2022/01/08 06:55:21;;;;;;;128.80;59.03;;;;;;;;;;5008886;28;20072;-84
2022/01/08 06:57:48;;;;;;;126.60;58.30;;;;;;;;;;5012380;28;20041;-85
2022/01/08 07:00:14;;;;;;;136.52;59.30;;;;;;;;;;5029899;28;20034;-83
2022/01/08 07:02:40;;;;;;;150.55;61.40;;;;;;;;;;5006969;28;20037;-83
2022/01/08 07:05:07;;;;;;;155.38;61.40;;;;;;;;;;5019939;28;20148;-84
2022/01/08 07:07:33;;;;;;;134.50;58.88;;;;;;;;;;5027422;28;20025;-84
2022/01/08 07:09:59;;;;;;;127.45;56.38;;;;;;;;;;5023795;28;20037;-82
2022/01/08 07:12:26;;;;;;;128.73;58.42;;;;;;;;;;5011222;28;20144;-84
2022/01/08 07:14:52;;;;;;;125.38;59.40;;;;;;;;;;5026107;28;20072;-84
2022/01/08 07:17:18;;;;;;;116.60;54.10;;;;;;;;;;5007610;28;20484;-81
2022/01/08 07:19:45;;;;;;;129.02;60.75;;;;;;;;;;5023321;28;20030;-83
2022/01/08 07:22:11;;;;;;;125.75;55.95;;;;;;;;;;5027074;28;20093;-82
2022/01/08 07:24:37;;;;;;;120.15;55.50;;;;;;;;;;5025712;28;20037;-83
2022/01/08 07:27:04;;;;;;;124.10;55.80;;;;;;;;;;5025831;28;20109;-81
2022/01/08 07:29:30;;;;;;;127.22;57.47;;;;;;;;;;5027654;28;20381;-85
2022/01/08 07:31:56;;;;;;;132.27;58.80;;;;;;;;;;5020669;28;20021;-84
2022/01/08 07:34:23;;;;;;;124.13;58.90;;;;;;;;;;5020645;28;20030;-84
2022/01/08 07:36:49;;;;;;;123.10;57.65;;;;;;;;;;5022266;28;20037;-81
2022/01/08 07:39:15;;;;;;;119.03;55.13;;;;;;;;;;5020981;28;20076;-84
2022/01/08 07:41:42;;;;;;;121.43;57.13;;;;;;;;;;5017981;28;20065;-84
2022/01/08 07:44:08;;;;;;;124.05;58.45;;;;;;;;;;5022024;28;20056;-84
2022/01/08 07:46:34;;;;;;;121.97;58.38;;;;;;;;;;5020857;28;20029;-83
2022/01/08 07:49:01;;;;;;;116.70;55.95;;;;;;;;;;5019029;28;20033;-82
2022/01/08 07:51:27;;;;;;;132.65;59.17;;;;;;;;;;5028061;28;20036;-85
2022/01/08 07:53:53;;;;;;;116.88;61.85;;;;;;;;;;5028490;28;20026;-83
2022/01/08 07:56:19;;;;;;;133.95;61.05;;;;;;;;;;5009871;28;20029;-82
2022/01/08 07:58:46;;;;;;;124.95;58.05;;;;;;;;;;5023922;28;20056;-84
2022/01/08 08:01:12;;;;;;;121.00;59.67;;;;;;;;;;5026497;28;20040;-82
2022/01/08 08:03:38;;;;;;;126.88;58.20;;;;;;;;;;5024717;28;20096;-84
2022/01/08 08:06:05;;;;;;;122.40;57.45;;;;;;;;;;5022726;28;20409;-85
2022/01/08 08:08:31;;;;;;;120.85;59.60;;;;;;;;;;5020890;28;20022;-83
2022/01/08 08:10:57;;;;;;;119.85;59.33;;;;;;;;;;5021371;28;20022;-82
2022/01/08 08:13:23;;;;;;;120.78;57.85;;;;;;;;;;5024174;28;20076;-84
2022/01/08 08:15:50;;;;;;;123.63;56.38;;;;;;;;;;5000933;28;20061;-86
2022/01/08 08:18:16;;;;;;;114.45;58.45;;;;;;;;;;5013833;28;20041;-84
2022/01/08 08:20:43;;;;;;;107.57;55.55;;;;;;;;;;5016308;28;20045;-84
2022/01/08 08:23:09;;;;;;;115.15;56.05;;;;;;;;;;5026439;28;20041;-82
2022/01/08 08:25:35;;;;;;;112.93;58.30;;;;;;;;;;5031133;28;20465;-83
2022/01/08 08:28:03;;;;;;;109.85;56.97;;;;;;;;;;5017016;28;20468;-83
2022/01/08 08:30:30;;;;;;;123.63;59.97;;;;;;;;;;5031241;28;20033;-85
2022/01/08 08:32:56;;;;;;;110.43;56.42;;;;;;;;;;5029601;28;20087;-84
2022/01/08 08:35:22;;;;;;;116.18;59.58;;;;;;;;;;5028632;28;20101;-85
2022/01/08 08:37:49;;;;;;;118.75;59.88;;;;;;;;;;5013066;28;20128;-85
2022/01/08 08:40:15;;;;;;;128.18;60.40;;;;;;;;;;5034515;28;20038;-85
2022/01/08 08:42:42;;;;;;;120.03;58.92;;;;;;;;;;5031282;28;20036;-84
2022/01/08 08:45:09;;;;;;;119.03;61.17;;;;;;;;;;5031222;28;20029;-82
2022/01/08 08:47:35;;;;;;;119.03;62.47;;;;;;;;;;5024740;28;20034;-86
2022/01/08 08:50:02;;;;;;;119.93;60.28;;;;;;;;;;5031045;28;20116;-84
2022/01/08 08:52:29;;;;;;;120.95;59.03;;;;;;;;;;5012606;28;20041;-84
2022/01/08 08:54:55;;;;;;;118.88;62.80;;;;;;;;;;5026000;28;20033;-85
2022/01/08 08:57:21;;;;;;;133.75;65.22;;;;;;;;;;5031504;28;20021;-85
2022/01/08 08:59:47;;;;;;;112.97;59.47;;;;;;;;;;5028806;28;20574;-84
2022/01/08 09:02:14;;;;;;;133.15;64.82;;;;;;;;;;5031354;28;20034;-85
2022/01/08 09:04:41;;;;;;;120.70;66.85;;;;;;;;;;5026728;28;20037;-84
2022/01/08 09:07:08;;;;;;;137.73;68.80;;;;;;;;;;5010993;28;20040;-83
2022/01/08 09:09:34;;;;;;;140.73;74.03;;;;;;;;;;5009653;28;20111;-83
2022/01/08 09:12:01;;;;;;;158.07;79.53;;;;;;;;;;5025751;28;20069;-82
2022/01/08 09:14:27;;;;;;;178.63;87.57;;;;;;;;;;5007930;28;20543;-82
2022/01/08 09:16:57;;;;;;;166.77;88.13;;;;;;;;;;5029694;28;20052;-84
2022/01/08 09:19:23;;;;;;;171.02;89.45;;;;;;;;;;5014354;28;20085;-83
2022/01/08 09:21:50;;;;;;;171.57;91.43;;;;;;;;;;5025656;28;20454;-84
2022/01/08 09:24:18;;;;;;;170.55;86.88;;;;;;;;;;5018150;28;20072;-83
2022/01/08 09:26:45;;;;;;;167.88;86.90;;;;;;;;;;5023961;28;20030;-86
2022/01/08 09:29:12;;;;;;;175.60;88.88;;;;;;;;;;5025119;28;20038;-83
2022/01/08 09:31:39;;;;;;;170.75;93.78;;;;;;;;;;5028910;28;20028;-83
2022/01/08 09:34:06;;;;;;;187.07;93.13;;;;;;;;;;5034953;28;20034;-84
2022/01/08 09:36:32;;;;;;;178.68;94.90;;;;;;;;;;5014914;28;20092;-84
2022/01/08 09:38:59;;;;;;;178.70;95.10;;;;;;;;;;5012494;28;20033;-83
2022/01/08 09:41:25;;;;;;;186.07;94.38;;;;;;;;;;5034902;28;20055;-82
2022/01/08 09:43:52;;;;;;;175.85;92.60;;;;;;;;;;5017508;28;20389;-84
2022/01/08 09:46:21;;;;;;;183.85;95.22;;;;;;;;;;5033735;28;20139;-83
2022/01/08 09:48:47;;;;;;;185.27;92.43;;;;;;;;;;5031888;28;20155;-82
2022/01/08 09:51:14;;;;;;;178.23;94.95;;;;;;;;;;5009419;28;20461;-85
2022/01/08 09:53:40;;;;;;;180.00;93.72;;;;;;;;;;5033532;28;20038;-86
2022/01/08 09:56:06;;;;;;;177.63;94.05;;;;;;;;;;5033074;28;20026;-83
2022/01/08 09:58:33;;;;;;;169.90;91.22;;;;;;;;;;5024352;28;20029;-86
2022/01/08 10:00:59;;;;;;;181.23;95.13;;;;;;;;;;5013755;28;20539;-84
2022/01/08 10:03:27;;;;;;;175.45;95.07;;;;;;;;;;5014959;28;20065;-85
2022/01/08 10:05:55;;;;;;;186.52;96.93;;;;;;;;;;5028679;28;20108;-84
2022/01/08 10:08:28;;;;;;;174.18;93.63;;;;;;;;;;5031040;28;20060;-82
2022/01/08 10:10:59;;;;;;;178.90;93.43;;;;;;;;;;5032597;28;20018;-84
2022/01/08 10:13:28;;;;;;;189.27;96.00;;;;;;;;;;5026843;28;20098;-85
2022/01/08 10:18:40;;;;;;;176.65;94.88;;;;;;;;;;5047459;28;20028;-83
2022/01/08 10:21:26;;;;;;;192.27;98.40;;;;;;;;;;5036160;28;20045;-82
2022/01/08 10:23:53;;;;;;;184.13;96.45;;;;;;;;;;5023311;28;20021;-85
2022/01/08 10:26:20;;;;;;;201.95;104.25;;;;;;;;;;5031290;28;20534;-83
2022/01/08 10:28:49;;;;;;;190.07;99.22;;;;;;;;;;5029290;28;20053;-85
2022/01/08 10:31:17;;;;;;;186.35;98.32;;;;;;;;;;5022883;28;20026;-82
2022/01/08 10:33:48;;;;;;;195.02;98.95;;;;;;;;;;5013487;28;20497;-83
2022/01/08 10:36:15;;;;;;;195.93;96.63;;;;;;;;;;5012714;28;20030;-86
2022/01/08 10:38:41;;;;;;;192.57;101.20;;;;;;;;;;5025514;28;20026;-84
2022/01/08 10:41:14;;;;;;;193.68;99.82;;;;;;;;;;5010114;28;20031;-81
2022/01/08 10:43:41;;;;;;;194.05;100.95;;;;;;;;;;5008622;28;20029;-84
2022/01/08 10:46:20;;;;;;;198.43;97.30;;;;;;;;;;5011430;28;20057;-86
2022/01/08 10:48:48;;;;;;;178.95;96.00;;;;;;;;;;5033711;28;20049;-85
2022/01/08 10:51:14;;;;;;;198.15;98.90;;;;;;;;;;5028800;28;20072;-82
2022/01/08 10:53:53;;;;;;;200.38;99.15;;;;;;;;;;5028306;28;20022;-85
2022/01/08 10:56:24;;;;;;;189.27;100.32;;;;;;;;;;5013995;28;20560;-85
2022/01/08 10:58:52;;;;;;;192.07;99.13;;;;;;;;;;5018294;28;20033;-81
2022/01/08 11:01:38;;;;;;;183.18;98.35;;;;;;;;;;5031260;28;20028;-83
2022/01/08 11:04:06;;;;;;;193.45;97.53;;;;;;;;;;5033534;28;20033;-85
2022/01/08 11:06:32;;;;;;;196.73;98.35;;;;;;;;;;5011359;28;20128;-83
2022/01/08 11:09:02;;;;;;;200.13;97.90;;;;;;;;;;5025654;28;20204;-83
2022/01/08 11:11:30;;;;;;;197.02;98.22;;;;;;;;;;5023158;28;20447;-82
2022/01/08 11:14:05;;;;;;;197.80;98.78;;;;;;;;;;5027449;28;20063;-81
2022/01/08 11:16:32;;;;;;;196.30;98.38;;;;;;;;;;5022039;28;20477;-83
2022/01/08 11:18:59;;;;;;;201.73;100.95;;;;;;;;;;5009782;28;20523;-84
2022/01/08 11:21:30;;;;;;;198.75;99.70;;;;;;;;;;5006485;28;20049;-85
2022/01/08 11:23:58;;;;;;;198.90;101.30;;;;;;;;;;5004022;28;20029;-83
2022/01/08 11:26:25;;;;;;;188.43;101.15;;;;;;;;;;5009554;28;20456;-86
2022/01/08 11:28:54;;;;;;;197.95;101.47;;;;;;;;;;5024894;28;20532;-85
2022/01/08 11:31:21;;;;;;;197.32;100.82;;;;;;;;;;5026879;28;20039;-84
2022/01/08 11:33:55;;;;;;;184.80;98.47;;;;;;;;;;5011235;28;20029;-84
2022/01/08 11:36:21;;;;;;;195.30;99.80;;;;;;;;;;5012046;28;20528;-85
2022/01/08 11:38:48;;;;;;;198.00;98.88;;;;;;;;;;5022006;28;20034;-85
2022/01/08 11:41:16;;;;;;;188.27;99.80;;;;;;;;;;5021340;28;20465;-84
2022/01/08 11:43:42;;;;;;;199.10;103.50;;;;;;;;;;5025415;28;20061;-86
2022/01/08 11:46:09;;;;;;;197.38;102.32;;;;;;;;;;5029341;28;20100;-85
2022/01/08 11:48:38;;;;;;;192.65;100.45;;;;;;;;;;5027504;28;20022;-85
2022/01/08 11:51:06;;;;;;;189.85;96.88;;;;;;;;;;5024989;28;20053;-86
2022/01/08 11:53:44;;;;;;;201.43;100.80;;;;;;;;;;5028685;28;20018;-83
2022/01/08 11:56:22;;;;;;;182.43;98.93;;;;;;;;;;5011005;28;20033;-87
2022/01/08 11:59:02;;;;;;;218.07;108.47;;;;;;;;;;5022916;28;20053;-84
2022/01/08 12:01:28;;;;;;;213.88;107.38;;;;;;;;;;5025705;28;20033;-85
2022/01/08 12:03:55;;;;;;;207.15;105.63;;;;;;;;;;5015006;28;20044;-83
2022/01/08 12:06:22;;;;;;;221.35;111.20;;;;;;;;;;5019727;28;20034;-85
2022/01/08 12:09:21;;;;;;;253.57;130.88;;;;;;;;;;5029293;28;20018;-85
2022/01/08 12:11:47;;;;;;;212.52;108.85;;;;;;;;;;5019255;28;20022;-83
2022/01/08 12:14:15;;;;;;;218.48;109.70;;;;;;;;;;5017962;28;20033;-84
2022/01/08 12:16:44;;;;;;;218.00;110.88;;;;;;;;;;5014117;28;20088;-87
2022/01/08 12:19:26;;;;;;;239.68;117.95;;;;;;;;;;5032918;28;20060;-84
2022/01/08 12:21:53;;;;;;;226.27;119.88;;;;;;;;;;5013079;28;20072;-83
2022/01/08 12:24:29;;;;;;;234.32;118.95;;;;;;;;;;5006954;28;20037;-84
2022/01/08 12:26:56;;;;;;;229.73;120.18;;;;;;;;;;5011675;28;20469;-82
2022/01/08 12:29:38;;;;;;;241.50;122.78;;;;;;;;;;5016239;28;20022;-83
2022/01/08 12:32:23;;;;;;;232.52;118.88;;;;;;;;;;5002854;28;20018;-82
2022/01/08 12:34:51;;;;;;;241.23;121.35;;;;;;;;;;5036032;28;20038;-85
2022/01/08 12:37:17;;;;;;;239.50;120.30;;;;;;;;;;5031779;28;20113;-86
2022/01/08 12:39:44;;;;;;;248.10;123.55;;;;;;;;;;5032232;28;20113;-83
2022/01/08 12:42:22;;;;;;;259.70;125.82;;;;;;;;;;5015270;28;20029;-85
2022/01/08 12:44:58;;;;;;;249.45;126.43;;;;;;;;;;5032488;28;20025;-85
2022/01/08 12:47:41;;;;;;;240.00;123.97;;;;;;;;;;5019888;28;20090;-85
2022/01/08 12:50:27;;;;;;;254.07;124.82;;;;;;;;;;5038490;28;20022;-83
2022/01/08 12:53:09;;;;;;;246.07;128.27;;;;;;;;;;5030744;28;20072;-85
2022/01/08 12:55:35;;;;;;;250.68;128.27;;;;;;;;;;5028187;28;20556;-86
2022/01/08 12:58:02;;;;;;;256.48;129.55;;;;;;;;;;5032971;28;20499;-85
2022/01/08 13:00:28;;;;;;;248.93;127.10;;;;;;;;;;5024011;28;20033;-82
2022/01/08 13:02:55;;;;;;;247.25;123.55;;;;;;;;;;5035987;28;20432;-83
2022/01/08 13:05:21;;;;;;;251.32;123.90;;;;;;;;;;5036213;28;20407;-86
2022/01/08 13:07:51;;;;;;;245.57;126.93;;;;;;;;;;5035953;28;20026;-82
2022/01/08 13:10:18;;;;;;;264.52;129.88;;;;;;;;;;5035306;28;20407;-85
2022/01/08 13:12:44;;;;;;;270.33;132.13;;;;;;;;;;5032401;28;20025;-85
2022/01/08 13:15:11;;;;;;;278.63;135.30;;;;;;;;;;5037265;28;20419;-82
2022/01/08 13:17:37;;;;;;;273.08;137.10;;;;;;;;;;5042485;28;20101;-84
2022/01/08 13:20:04;;;;;;;275.45;132.63;;;;;;;;;;5017589;28;20487;-83
2022/01/08 13:22:31;;;;;;;283.55;134.30;;;;;;;;;;5017683;28;20138;-83
2022/01/08 13:24:58;;;;;;;271.90;135.73;;;;;;;;;;5034965;28;20068;-85
2022/01/08 13:27:24;;;;;;;279.40;133.43;;;;;;;;;;5035862;28;20472;-81
2022/01/08 13:29:51;;;;;;;279.50;136.55;;;;;;;;;;5033785;28;20053;-87
2022/01/08 13:32:19;;;;;;;293.08;136.55;;;;;;;;;;5024192;28;20032;-83
2022/01/08 13:34:50;;;;;;;283.50;135.80;;;;;;;;;;5029162;28;20024;-85
2022/01/08 13:37:23;;;;;;;288.40;133.90;;;;;;;;;;5012663;28;20037;-84
2022/01/08 13:39:51;;;;;;;283.30;135.25;;;;;;;;;;5028614;28;20029;-82
2022/01/08 13:42:35;;;;;;;290.73;137.43;;;;;;;;;;5007090;28;20075;-83
2022/01/08 13:45:02;;;;;;;299.40;138.65;;;;;;;;;;5022650;28;20029;-82
2022/01/08 13:47:31;;;;;;;292.25;134.95;;;;;;;;;;5033068;28;20033;-84
2022/01/08 13:50:07;;;;;;;294.77;135.40;;;;;;;;;;5026031;28;20022;-83
2022/01/08 13:52:39;;;;;;;288.13;133.07;;;;;;;;;;5027072;28;20413;-83
2022/01/08 13:55:13;;;;;;;273.35;135.07;;;;;;;;;;5030889;28;20104;-82
2022/01/08 13:57:40;;;;;;;272.52;132.70;;;;;;;;;;5025974;28;20515;-85
2022/01/08 14:00:28;;;;;;;276.00;131.88;;;;;;;;;;5032272;28;20033;-85
2022/01/08 14:02:56;;;;;;;270.70;130.57;;;;;;;;;;5026784;28;20025;-84
2022/01/08 14:05:23;;;;;;;274.38;130.15;;;;;;;;;;5026573;28;20029;-85
2022/01/08 14:07:49;;;;;;;273.05;128.63;;;;;;;;;;5024045;28;20381;-82
2022/01/08 14:10:17;;;;;;;282.98;130.50;;;;;;;;;;5028193;28;20068;-82
2022/01/08 14:13:05;;;;;;;283.70;133.25;;;;;;;;;;5008391;28;20162;-84
2022/01/08 14:15:33;;;;;;;287.02;134.65;;;;;;;;;;5028522;28;20017;-83
2022/01/08 14:18:28;;;;;;;256.00;127.00;;;;;;;;;;5008608;28;20033;-83
2022/01/08 14:20:57;;;;;;;267.98;131.48;;;;;;;;;;5019379;28;20048;-85
2022/01/08 14:23:33;;;;;;;260.50;129.10;;;;;;;;;;5003840;28;20119;-83
2022/01/08 14:26:12;;;;;;;272.65;128.30;;;;;;;;;;5010553;28;20108;-84
2022/01/08 14:29:05;;;;;;;274.90;130.07;;;;;;;;;;5027605;28;20017;-85
2022/01/08 14:31:32;;;;;;;268.30;125.50;;;;;;;;;;5027040;28;20499;-83
2022/01/08 14:34:00;;;;;;;286.63;133.73;;;;;;;;;;5005384;28;20018;-83
2022/01/08 14:36:27;;;;;;;264.85;129.75;;;;;;;;;;5020245;28;20022;-84